sensor_id;sensor_type;location;lat;lon;timestamp;P1;durP1;ratioP1;P2;durP2;ratioP2
18738;SDS011;9498;51.862;19.460;2023-02-01T00:00:29;9.30;;;4.73;;
18738;SDS011;9498;51.862;19.460;2023-02-01T00:02:58;9.17;;;4.33;;
18738;SDS011;9498;51.862;19.460;2023-02-01T00:05:25;10.47;;;4.53;;
18738;SDS011;9498;51.862;19.460;2023-02-01T00:07:53;10.13;;;4.73;;
18738;SDS011;9498;51.862;19.460;2023-02-01T00:10:22;8.57;;;4.00;;
18738;SDS011;9498;51.862;19.460;2023-02-01T00:12:49;7.17;;;3.77;;
18738;SDS011;9498;51.862;19.460;2023-02-01T00:15:16;9.60;;;3.80;;
18738;SDS011;9498;51.862;19.460;2023-02-01T00:17:44;9.70;;;3.70;;
18738;SDS011;9498;51.862;19.460;2023-02-01T00:20:12;10.17;;;3.83;;
18738;SDS011;9498;51.862;19.460;2023-02-01T00:22:39;6.70;;;3.00;;
18738;SDS011;9498;51.862;19.460;2023-02-01T00:25:07;13.43;;;4.00;;
18738;SDS011;9498;51.862;19.460;2023-02-01T00:27:36;7.40;;;2.63;;
18738;SDS011;9498;51.862;19.460;2023-02-01T00:30:03;13.43;;;3.17;;
18738;SDS011;9498;51.862;19.460;2023-02-01T00:32:31;9.50;;;2.90;;
18738;SDS011;9498;51.862;19.460;2023-02-01T00:34:58;7.90;;;3.10;;
18738;SDS011;9498;51.862;19.460;2023-02-01T00:37:26;14.57;;;3.37;;
18738;SDS011;9498;51.862;19.460;2023-02-01T00:39:53;16.60;;;3.33;;
18738;SDS011;9498;51.862;19.460;2023-02-01T00:42:21;7.50;;;3.00;;
18738;SDS011;9498;51.862;19.460;2023-02-01T00:44:49;10.13;;;2.90;;
18738;SDS011;9498;51.862;19.460;2023-02-01T00:47:17;7.07;;;2.40;;
18738;SDS011;9498;51.862;19.460;2023-02-01T00:49:45;13.43;;;2.53;;
18738;SDS011;9498;51.862;19.460;2023-02-01T00:52:12;13.27;;;3.10;;
18738;SDS011;9498;51.862;19.460;2023-02-01T00:54:39;9.40;;;2.43;;
18738;SDS011;9498;51.862;19.460;2023-02-01T00:57:07;13.03;;;2.77;;
18738;SDS011;9498;51.862;19.460;2023-02-01T00:59:34;20.53;;;3.70;;
18738;SDS011;9498;51.862;19.460;2023-02-01T01:02:03;11.67;;;2.93;;
18738;SDS011;9498;51.862;19.460;2023-02-01T01:04:30;14.33;;;3.03;;
18738;SDS011;9498;51.862;19.460;2023-02-01T01:06:58;13.07;;;2.97;;
18738;SDS011;9498;51.862;19.460;2023-02-01T01:09:25;15.80;;;2.80;;
18738;SDS011;9498;51.862;19.460;2023-02-01T01:11:53;15.30;;;2.93;;
18738;SDS011;9498;51.862;19.460;2023-02-01T01:14:20;13.70;;;2.67;;
18738;SDS011;9498;51.862;19.460;2023-02-01T01:16:48;10.33;;;2.40;;
18738;SDS011;9498;51.862;19.460;2023-02-01T01:19:17;14.73;;;2.65;;
18738;SDS011;9498;51.862;19.460;2023-02-01T01:21:45;15.67;;;2.27;;
18738;SDS011;9498;51.862;19.460;2023-02-01T01:24:12;11.17;;;2.50;;
18738;SDS011;9498;51.862;19.460;2023-02-01T01:26:39;15.50;;;2.93;;
18738;SDS011;9498;51.862;19.460;2023-02-01T01:29:08;15.67;;;2.63;;
18738;SDS011;9498;51.862;19.460;2023-02-01T01:31:36;9.37;;;2.37;;
18738;SDS011;9498;51.862;19.460;2023-02-01T01:34:03;9.70;;;2.03;;
18738;SDS011;9498;51.862;19.460;2023-02-01T01:36:32;11.43;;;2.23;;
18738;SDS011;9498;51.862;19.460;2023-02-01T01:39:00;8.60;;;1.80;;
18738;SDS011;9498;51.862;19.460;2023-02-01T01:41:28;9.93;;;2.00;;
18738;SDS011;9498;51.862;19.460;2023-02-01T01:43:57;10.63;;;2.67;;
18738;SDS011;9498;51.862;19.460;2023-02-01T01:46:26;7.50;;;2.17;;
18738;SDS011;9498;51.862;19.460;2023-02-01T01:48:56;14.55;;;2.95;;
18738;SDS011;9498;51.862;19.460;2023-02-01T01:51:24;9.13;;;2.33;;
18738;SDS011;9498;51.862;19.460;2023-02-01T01:53:56;10.40;;;2.73;;
18738;SDS011;9498;51.862;19.460;2023-02-01T01:56:26;9.77;;;2.37;;
18738;SDS011;9498;51.862;19.460;2023-02-01T01:58:54;18.47;;;3.03;;
18738;SDS011;9498;51.862;19.460;2023-02-01T02:01:22;10.70;;;2.43;;
18738;SDS011;9498;51.862;19.460;2023-02-01T02:03:49;11.07;;;2.40;;
18738;SDS011;9498;51.862;19.460;2023-02-01T02:06:20;9.73;;;2.50;;
18738;SDS011;9498;51.862;19.460;2023-02-01T02:08:49;12.50;;;2.87;;
18738;SDS011;9498;51.862;19.460;2023-02-01T02:11:18;6.47;;;2.33;;
18738;SDS011;9498;51.862;19.460;2023-02-01T02:13:46;15.27;;;3.37;;
18738;SDS011;9498;51.862;19.460;2023-02-01T02:16:23;10.53;;;2.80;;
18738;SDS011;9498;51.862;19.460;2023-02-01T02:18:55;12.17;;;2.80;;
18738;SDS011;9498;51.862;19.460;2023-02-01T02:21:29;12.97;;;2.90;;
18738;SDS011;9498;51.862;19.460;2023-02-01T02:24:16;11.50;;;3.03;;
18738;SDS011;9498;51.862;19.460;2023-02-01T02:27:01;14.60;;;3.27;;
18738;SDS011;9498;51.862;19.460;2023-02-01T02:29:40;17.20;;;2.97;;
18738;SDS011;9498;51.862;19.460;2023-02-01T02:35:07;11.07;;;3.30;;
18738;SDS011;9498;51.862;19.460;2023-02-01T02:37:37;11.80;;;3.00;;
18738;SDS011;9498;51.862;19.460;2023-02-01T02:40:07;13.97;;;3.07;;
18738;SDS011;9498;51.862;19.460;2023-02-01T02:42:38;20.77;;;3.47;;
18738;SDS011;9498;51.862;19.460;2023-02-01T02:45:27;13.18;;;3.65;;
18738;SDS011;9498;51.862;19.460;2023-02-01T02:48:13;13.67;;;3.20;;
18738;SDS011;9498;51.862;19.460;2023-02-01T02:50:46;12.47;;;3.30;;
18738;SDS011;9498;51.862;19.460;2023-02-01T02:53:35;14.57;;;3.10;;
18738;SDS011;9498;51.862;19.460;2023-02-01T02:56:23;17.00;;;2.90;;
18738;SDS011;9498;51.862;19.460;2023-02-01T02:59:09;14.23;;;3.27;;
18738;SDS011;9498;51.862;19.460;2023-02-01T03:01:56;18.97;;;4.13;;
18738;SDS011;9498;51.862;19.460;2023-02-01T03:04:41;17.93;;;3.83;;
18738;SDS011;9498;51.862;19.460;2023-02-01T03:07:13;14.23;;;3.60;;
18738;SDS011;9498;51.862;19.460;2023-02-01T03:09:42;14.60;;;3.40;;
18738;SDS011;9498;51.862;19.460;2023-02-01T03:12:11;16.70;;;3.37;;
18738;SDS011;9498;51.862;19.460;2023-02-01T03:15:00;15.27;;;3.97;;
18738;SDS011;9498;51.862;19.460;2023-02-01T03:17:31;18.50;;;3.53;;
18738;SDS011;9498;51.862;19.460;2023-02-01T03:20:01;20.70;;;3.43;;
18738;SDS011;9498;51.862;19.460;2023-02-01T03:22:32;19.37;;;3.50;;
18738;SDS011;9498;51.862;19.460;2023-02-01T03:25:01;15.57;;;3.10;;
18738;SDS011;9498;51.862;19.460;2023-02-01T03:27:30;13.57;;;3.50;;
18738;SDS011;9498;51.862;19.460;2023-02-01T03:30:00;20.43;;;3.43;;
18738;SDS011;9498;51.862;19.460;2023-02-01T03:32:30;19.37;;;3.40;;
18738;SDS011;9498;51.862;19.460;2023-02-01T03:35:18;14.97;;;3.40;;
18738;SDS011;9498;51.862;19.460;2023-02-01T03:37:49;15.33;;;3.07;;
18738;SDS011;9498;51.862;19.460;2023-02-01T03:40:17;9.73;;;3.07;;
18738;SDS011;9498;51.862;19.460;2023-02-01T03:42:45;19.33;;;4.07;;
18738;SDS011;9498;51.862;19.460;2023-02-01T03:45:16;12.47;;;3.30;;
18738;SDS011;9498;51.862;19.460;2023-02-01T03:47:46;9.70;;;3.07;;
18738;SDS011;9498;51.862;19.460;2023-02-01T03:50:16;14.73;;;3.53;;
18738;SDS011;9498;51.862;19.460;2023-02-01T03:52:45;16.63;;;3.57;;
18738;SDS011;9498;51.862;19.460;2023-02-01T03:55:16;11.17;;;2.93;;
18738;SDS011;9498;51.862;19.460;2023-02-01T03:57:46;18.63;;;2.87;;
18738;SDS011;9498;51.862;19.460;2023-02-01T04:00:16;16.57;;;3.20;;
18738;SDS011;9498;51.862;19.460;2023-02-01T04:02:44;12.87;;;2.80;;
18738;SDS011;9498;51.862;19.460;2023-02-01T04:05:11;24.90;;;2.90;;
18738;SDS011;9498;51.862;19.460;2023-02-01T04:07:39;22.30;;;3.37;;
18738;SDS011;9498;51.862;19.460;2023-02-01T04:10:06;16.07;;;2.93;;
18738;SDS011;9498;51.862;19.460;2023-02-01T04:12:35;16.10;;;4.20;;
18738;SDS011;9498;51.862;19.460;2023-02-01T04:15:03;18.07;;;3.87;;
18738;SDS011;9498;51.862;19.460;2023-02-01T04:17:30;15.17;;;3.20;;
18738;SDS011;9498;51.862;19.460;2023-02-01T04:19:58;15.83;;;2.80;;
18738;SDS011;9498;51.862;19.460;2023-02-01T04:22:25;21.43;;;3.70;;
18738;SDS011;9498;51.862;19.460;2023-02-01T04:24:53;17.10;;;3.47;;
18738;SDS011;9498;51.862;19.460;2023-02-01T04:27:21;12.50;;;3.17;;
18738;SDS011;9498;51.862;19.460;2023-02-01T04:29:50;16.60;;;3.30;;
18738;SDS011;9498;51.862;19.460;2023-02-01T04:32:17;10.83;;;2.83;;
18738;SDS011;9498;51.862;19.460;2023-02-01T04:34:45;16.60;;;3.40;;
18738;SDS011;9498;51.862;19.460;2023-02-01T04:37:13;14.53;;;3.33;;
18738;SDS011;9498;51.862;19.460;2023-02-01T04:39:40;20.17;;;3.37;;
18738;SDS011;9498;51.862;19.460;2023-02-01T04:42:08;17.20;;;3.08;;
18738;SDS011;9498;51.862;19.460;2023-02-01T04:44:35;17.90;;;3.80;;
18738;SDS011;9498;51.862;19.460;2023-02-01T04:47:06;13.50;;;2.77;;
18738;SDS011;9498;51.862;19.460;2023-02-01T04:49:33;19.63;;;3.67;;
18738;SDS011;9498;51.862;19.460;2023-02-01T04:52:00;10.13;;;2.87;;
18738;SDS011;9498;51.862;19.460;2023-02-01T04:54:28;11.03;;;2.90;;
18738;SDS011;9498;51.862;19.460;2023-02-01T04:56:55;16.53;;;3.23;;
18738;SDS011;9498;51.862;19.460;2023-02-01T04:59:23;15.67;;;3.00;;
18738;SDS011;9498;51.862;19.460;2023-02-01T05:01:50;14.17;;;3.30;;
18738;SDS011;9498;51.862;19.460;2023-02-01T05:04:19;20.20;;;2.83;;
18738;SDS011;9498;51.862;19.460;2023-02-01T05:06:46;9.80;;;2.50;;
18738;SDS011;9498;51.862;19.460;2023-02-01T05:09:14;14.00;;;2.73;;
18738;SDS011;9498;51.862;19.460;2023-02-01T05:11:41;14.00;;;3.00;;
18738;SDS011;9498;51.862;19.460;2023-02-01T05:14:26;20.58;;;3.72;;
18738;SDS011;9498;51.862;19.460;2023-02-01T05:16:53;18.53;;;3.17;;
18738;SDS011;9498;51.862;19.460;2023-02-01T05:19:22;15.80;;;3.30;;
18738;SDS011;9498;51.862;19.460;2023-02-01T05:21:50;16.93;;;3.50;;
18738;SDS011;9498;51.862;19.460;2023-02-01T05:24:17;21.73;;;3.73;;
18738;SDS011;9498;51.862;19.460;2023-02-01T05:26:46;13.00;;;3.37;;
18738;SDS011;9498;51.862;19.460;2023-02-01T05:29:13;15.07;;;3.10;;
18738;SDS011;9498;51.862;19.460;2023-02-01T05:31:41;19.07;;;3.30;;
18738;SDS011;9498;51.862;19.460;2023-02-01T05:34:10;19.60;;;3.33;;
18738;SDS011;9498;51.862;19.460;2023-02-01T05:36:39;20.60;;;3.37;;
18738;SDS011;9498;51.862;19.460;2023-02-01T05:39:07;12.43;;;3.10;;
18738;SDS011;9498;51.862;19.460;2023-02-01T05:41:35;13.60;;;3.33;;
18738;SDS011;9498;51.862;19.460;2023-02-01T05:44:02;18.50;;;4.70;;
18738;SDS011;9498;51.862;19.460;2023-02-01T05:46:32;20.13;;;3.77;;
18738;SDS011;9498;51.862;19.460;2023-02-01T05:48:59;11.13;;;3.50;;
18738;SDS011;9498;51.862;19.460;2023-02-01T05:51:27;22.10;;;4.03;;
18738;SDS011;9498;51.862;19.460;2023-02-01T05:53:57;21.23;;;3.57;;
18738;SDS011;9498;51.862;19.460;2023-02-01T05:56:24;20.80;;;3.13;;
18738;SDS011;9498;51.862;19.460;2023-02-01T05:58:52;12.97;;;3.63;;
18738;SDS011;9498;51.862;19.460;2023-02-01T06:01:19;11.30;;;2.80;;
18738;SDS011;9498;51.862;19.460;2023-02-01T06:03:47;19.37;;;4.00;;
18738;SDS011;9498;51.862;19.460;2023-02-01T06:06:14;15.77;;;3.90;;
18738;SDS011;9498;51.862;19.460;2023-02-01T06:08:41;21.97;;;4.07;;
18738;SDS011;9498;51.862;19.460;2023-02-01T06:11:10;16.60;;;3.70;;
18738;SDS011;9498;51.862;19.460;2023-02-01T06:13:38;15.30;;;3.43;;
18738;SDS011;9498;51.862;19.460;2023-02-01T06:16:06;16.10;;;3.17;;
18738;SDS011;9498;51.862;19.460;2023-02-01T06:18:33;18.63;;;3.87;;
18738;SDS011;9498;51.862;19.460;2023-02-01T06:21:01;15.33;;;3.03;;
18738;SDS011;9498;51.862;19.460;2023-02-01T06:23:28;15.40;;;3.50;;
18738;SDS011;9498;51.862;19.460;2023-02-01T06:25:59;23.77;;;4.50;;
18738;SDS011;9498;51.862;19.460;2023-02-01T06:28:28;19.77;;;4.03;;
18738;SDS011;9498;51.862;19.460;2023-02-01T06:30:56;15.83;;;3.30;;
18738;SDS011;9498;51.862;19.460;2023-02-01T06:33:24;9.90;;;2.90;;
18738;SDS011;9498;51.862;19.460;2023-02-01T06:35:56;16.60;;;3.53;;
18738;SDS011;9498;51.862;19.460;2023-02-01T06:38:23;19.63;;;2.80;;
18738;SDS011;9498;51.862;19.460;2023-02-01T06:40:54;24.10;;;3.67;;
18738;SDS011;9498;51.862;19.460;2023-02-01T06:43:22;21.40;;;3.30;;
18738;SDS011;9498;51.862;19.460;2023-02-01T06:45:52;22.27;;;2.97;;
18738;SDS011;9498;51.862;19.460;2023-02-01T06:48:19;16.87;;;3.20;;
18738;SDS011;9498;51.862;19.460;2023-02-01T06:50:47;21.67;;;3.73;;
18738;SDS011;9498;51.862;19.460;2023-02-01T06:53:14;16.77;;;3.20;;
18738;SDS011;9498;51.862;19.460;2023-02-01T06:55:41;17.20;;;3.80;;
18738;SDS011;9498;51.862;19.460;2023-02-01T06:58:17;14.43;;;3.83;;
18738;SDS011;9498;51.862;19.460;2023-02-01T07:00:45;12.30;;;3.63;;
18738;SDS011;9498;51.862;19.460;2023-02-01T07:03:14;17.27;;;4.50;;
18738;SDS011;9498;51.862;19.460;2023-02-01T07:05:41;14.73;;;3.70;;
18738;SDS011;9498;51.862;19.460;2023-02-01T07:08:09;26.20;;;4.17;;
18738;SDS011;9498;51.862;19.460;2023-02-01T07:10:36;14.67;;;3.80;;
18738;SDS011;9498;51.862;19.460;2023-02-01T07:13:04;18.93;;;3.37;;
18738;SDS011;9498;51.862;19.460;2023-02-01T07:15:31;23.35;;;4.20;;
18738;SDS011;9498;51.862;19.460;2023-02-01T07:17:59;18.47;;;4.20;;
18738;SDS011;9498;51.862;19.460;2023-02-01T07:20:28;22.57;;;4.40;;
18738;SDS011;9498;51.862;19.460;2023-02-01T07:22:55;16.83;;;4.73;;
18738;SDS011;9498;51.862;19.460;2023-02-01T07:25:23;18.97;;;3.90;;
18738;SDS011;9498;51.862;19.460;2023-02-01T07:27:50;26.90;;;5.03;;
18738;SDS011;9498;51.862;19.460;2023-02-01T07:30:18;21.50;;;5.07;;
18738;SDS011;9498;51.862;19.460;2023-02-01T07:32:45;17.77;;;4.07;;
18738;SDS011;9498;51.862;19.460;2023-02-01T07:35:13;21.07;;;4.97;;
18738;SDS011;9498;51.862;19.460;2023-02-01T07:37:41;20.20;;;5.13;;
18738;SDS011;9498;51.862;19.460;2023-02-01T07:40:09;21.00;;;4.33;;
18738;SDS011;9498;51.862;19.460;2023-02-01T07:42:37;17.40;;;4.10;;
18738;SDS011;9498;51.862;19.460;2023-02-01T07:45:05;25.90;;;5.47;;
18738;SDS011;9498;51.862;19.460;2023-02-01T07:47:33;15.87;;;4.57;;
18738;SDS011;9498;51.862;19.460;2023-02-01T07:50:00;17.87;;;4.70;;
18738;SDS011;9498;51.862;19.460;2023-02-01T07:52:27;23.40;;;4.90;;
18738;SDS011;9498;51.862;19.460;2023-02-01T07:54:56;16.40;;;4.27;;
18738;SDS011;9498;51.862;19.460;2023-02-01T07:57:24;15.93;;;3.90;;
18738;SDS011;9498;51.862;19.460;2023-02-01T07:59:52;19.53;;;4.07;;
18738;SDS011;9498;51.862;19.460;2023-02-01T08:02:37;22.97;;;4.03;;
18738;SDS011;9498;51.862;19.460;2023-02-01T08:05:05;18.17;;;3.30;;
18738;SDS011;9498;51.862;19.460;2023-02-01T08:07:32;25.83;;;4.47;;
18738;SDS011;9498;51.862;19.460;2023-02-01T08:10:01;25.07;;;4.47;;
18738;SDS011;9498;51.862;19.460;2023-02-01T08:12:30;29.67;;;4.93;;
18738;SDS011;9498;51.862;19.460;2023-02-01T08:14:58;20.00;;;4.40;;
18738;SDS011;9498;51.862;19.460;2023-02-01T08:17:25;28.63;;;4.97;;
18738;SDS011;9498;51.862;19.460;2023-02-01T08:19:53;23.93;;;4.70;;
18738;SDS011;9498;51.862;19.460;2023-02-01T08:22:21;24.00;;;4.40;;
18738;SDS011;9498;51.862;19.460;2023-02-01T08:24:48;23.00;;;4.17;;
18738;SDS011;9498;51.862;19.460;2023-02-01T08:27:17;29.67;;;5.27;;
18738;SDS011;9498;51.862;19.460;2023-02-01T08:29:44;24.43;;;4.60;;
18738;SDS011;9498;51.862;19.460;2023-02-01T08:32:12;23.00;;;5.13;;
18738;SDS011;9498;51.862;19.460;2023-02-01T08:34:39;17.43;;;4.80;;
18738;SDS011;9498;51.862;19.460;2023-02-01T08:37:07;17.30;;;4.60;;
18738;SDS011;9498;51.862;19.460;2023-02-01T08:39:35;19.53;;;4.93;;
18738;SDS011;9498;51.862;19.460;2023-02-01T08:42:02;16.50;;;4.13;;
18738;SDS011;9498;51.862;19.460;2023-02-01T08:45:03;25.13;;;5.17;;
18738;SDS011;9498;51.862;19.460;2023-02-01T08:47:33;17.30;;;5.00;;
18738;SDS011;9498;51.862;19.460;2023-02-01T08:50:00;17.57;;;4.33;;
18738;SDS011;9498;51.862;19.460;2023-02-01T08:52:28;23.43;;;5.27;;
18738;SDS011;9498;51.862;19.460;2023-02-01T08:54:55;26.37;;;5.03;;
18738;SDS011;9498;51.862;19.460;2023-02-01T08:57:23;22.27;;;4.50;;
18738;SDS011;9498;51.862;19.460;2023-02-01T08:59:50;18.67;;;4.87;;
18738;SDS011;9498;51.862;19.460;2023-02-01T09:02:19;24.43;;;5.10;;
18738;SDS011;9498;51.862;19.460;2023-02-01T09:04:46;19.20;;;4.93;;
18738;SDS011;9498;51.862;19.460;2023-02-01T09:07:14;24.83;;;5.10;;
18738;SDS011;9498;51.862;19.460;2023-02-01T09:09:42;27.83;;;5.27;;
18738;SDS011;9498;51.862;19.460;2023-02-01T09:12:09;29.53;;;5.50;;
18738;SDS011;9498;51.862;19.460;2023-02-01T09:14:36;18.93;;;4.63;;
18738;SDS011;9498;51.862;19.460;2023-02-01T09:17:04;19.13;;;3.67;;
18738;SDS011;9498;51.862;19.460;2023-02-01T09:19:33;19.90;;;4.63;;
18738;SDS011;9498;51.862;19.460;2023-02-01T09:22:00;24.57;;;4.90;;
18738;SDS011;9498;51.862;19.460;2023-02-01T09:24:28;28.60;;;4.23;;
18738;SDS011;9498;51.862;19.460;2023-02-01T09:26:55;25.70;;;4.30;;
18738;SDS011;9498;51.862;19.460;2023-02-01T09:29:22;18.87;;;5.00;;
18738;SDS011;9498;51.862;19.460;2023-02-01T09:31:50;23.17;;;5.13;;
18738;SDS011;9498;51.862;19.460;2023-02-01T09:34:17;26.40;;;6.40;;
18738;SDS011;9498;51.862;19.460;2023-02-01T09:36:46;24.43;;;5.57;;
18738;SDS011;9498;51.862;19.460;2023-02-01T09:39:13;22.00;;;5.50;;
18738;SDS011;9498;51.862;19.460;2023-02-01T09:41:44;25.63;;;6.07;;
18738;SDS011;9498;51.862;19.460;2023-02-01T09:44:16;26.57;;;6.67;;
18738;SDS011;9498;51.862;19.460;2023-02-01T09:46:45;22.50;;;5.80;;
18738;SDS011;9498;51.862;19.460;2023-02-01T09:49:13;12.73;;;5.23;;
18738;SDS011;9498;51.862;19.460;2023-02-01T09:51:42;18.67;;;6.00;;
18738;SDS011;9498;51.862;19.460;2023-02-01T09:54:13;21.03;;;5.87;;
18738;SDS011;9498;51.862;19.460;2023-02-01T09:56:42;28.90;;;6.60;;
18738;SDS011;9498;51.862;19.460;2023-02-01T09:59:15;25.27;;;6.80;;
18738;SDS011;9498;51.862;19.460;2023-02-01T10:01:45;33.93;;;7.10;;
18738;SDS011;9498;51.862;19.460;2023-02-01T10:04:13;25.67;;;7.77;;
18738;SDS011;9498;51.862;19.460;2023-02-01T10:06:48;19.63;;;6.53;;
18738;SDS011;9498;51.862;19.460;2023-02-01T10:09:25;28.73;;;7.40;;
18738;SDS011;9498;51.862;19.460;2023-02-01T10:12:04;25.63;;;6.77;;
18738;SDS011;9498;51.862;19.460;2023-02-01T10:14:43;19.00;;;6.87;;
18738;SDS011;9498;51.862;19.460;2023-02-01T10:17:17;22.60;;;7.10;;
18738;SDS011;9498;51.862;19.460;2023-02-01T10:19:48;25.20;;;7.80;;
18738;SDS011;9498;51.862;19.460;2023-02-01T10:22:21;25.57;;;8.70;;
18738;SDS011;9498;51.862;19.460;2023-02-01T10:24:54;30.10;;;7.43;;
18738;SDS011;9498;51.862;19.460;2023-02-01T10:27:24;19.30;;;6.47;;
18738;SDS011;9498;51.862;19.460;2023-02-01T10:29:54;24.00;;;7.37;;
18738;SDS011;9498;51.862;19.460;2023-02-01T10:32:24;29.03;;;6.80;;
18738;SDS011;9498;51.862;19.460;2023-02-01T10:34:53;25.83;;;7.17;;
18738;SDS011;9498;51.862;19.460;2023-02-01T10:37:32;17.07;;;6.57;;
18738;SDS011;9498;51.862;19.460;2023-02-01T10:40:02;30.07;;;7.33;;
18738;SDS011;9498;51.862;19.460;2023-02-01T10:42:33;24.57;;;7.10;;
18738;SDS011;9498;51.862;19.460;2023-02-01T10:45:00;25.90;;;6.70;;
18738;SDS011;9498;51.862;19.460;2023-02-01T10:47:29;20.93;;;6.37;;
18738;SDS011;9498;51.862;19.460;2023-02-01T10:49:58;23.50;;;6.67;;
18738;SDS011;9498;51.862;19.460;2023-02-01T10:52:34;27.70;;;7.10;;
18738;SDS011;9498;51.862;19.460;2023-02-01T10:57:55;36.27;;;8.00;;
18738;SDS011;9498;51.862;19.460;2023-02-01T11:00:23;26.70;;;7.20;;
18738;SDS011;9498;51.862;19.460;2023-02-01T11:02:51;22.40;;;6.23;;
18738;SDS011;9498;51.862;19.460;2023-02-01T11:05:18;24.17;;;6.53;;
18738;SDS011;9498;51.862;19.460;2023-02-01T11:07:48;30.10;;;6.90;;
18738;SDS011;9498;51.862;19.460;2023-02-01T11:12:59;26.53;;;6.43;;
18738;SDS011;9498;51.862;19.460;2023-02-01T11:15:29;23.00;;;6.97;;
18738;SDS011;9498;51.862;19.460;2023-02-01T11:17:56;25.23;;;6.93;;
18738;SDS011;9498;51.862;19.460;2023-02-01T11:20:35;23.13;;;6.43;;
18738;SDS011;9498;51.862;19.460;2023-02-01T11:23:10;20.43;;;6.37;;
18738;SDS011;9498;51.862;19.460;2023-02-01T11:25:39;26.07;;;6.63;;
18738;SDS011;9498;51.862;19.460;2023-02-01T11:28:15;24.97;;;6.70;;
18738;SDS011;9498;51.862;19.460;2023-02-01T11:30:44;20.60;;;5.97;;
18738;SDS011;9498;51.862;19.460;2023-02-01T11:33:13;16.03;;;5.63;;
18738;SDS011;9498;51.862;19.460;2023-02-01T11:35:42;20.80;;;5.60;;
18738;SDS011;9498;51.862;19.460;2023-02-01T11:38:18;18.53;;;5.97;;
18738;SDS011;9498;51.862;19.460;2023-02-01T11:40:46;23.57;;;6.13;;
18738;SDS011;9498;51.862;19.460;2023-02-01T11:43:17;26.97;;;6.27;;
18738;SDS011;9498;51.862;19.460;2023-02-01T11:45:53;20.23;;;6.23;;
18738;SDS011;9498;51.862;19.460;2023-02-01T11:48:21;23.52;;;6.20;;
18738;SDS011;9498;51.862;19.460;2023-02-01T11:50:52;30.23;;;6.13;;
18738;SDS011;9498;51.862;19.460;2023-02-01T11:53:25;16.50;;;5.57;;
18738;SDS011;9498;51.862;19.460;2023-02-01T11:56:01;16.63;;;5.37;;
18738;SDS011;9498;51.862;19.460;2023-02-01T12:01:25;25.23;;;6.85;;
18738;SDS011;9498;51.862;19.460;2023-02-01T12:06:39;17.07;;;5.20;;
18738;SDS011;9498;51.862;19.460;2023-02-01T12:09:13;10.60;;;4.50;;
18738;SDS011;9498;51.862;19.460;2023-02-01T12:11:46;15.03;;;4.40;;
18738;SDS011;9498;51.862;19.460;2023-02-01T12:14:32;14.03;;;5.10;;
18738;SDS011;9498;51.862;19.460;2023-02-01T12:17:08;12.50;;;4.77;;
18738;SDS011;9498;51.862;19.460;2023-02-01T12:19:43;12.43;;;4.50;;
18738;SDS011;9498;51.862;19.460;2023-02-01T12:22:19;13.97;;;4.40;;
18738;SDS011;9498;51.862;19.460;2023-02-01T12:24:57;17.40;;;5.22;;
18738;SDS011;9498;51.862;19.460;2023-02-01T12:27:33;16.20;;;5.40;;
18738;SDS011;9498;51.862;19.460;2023-02-01T12:30:15;17.63;;;4.67;;
18738;SDS011;9498;51.862;19.460;2023-02-01T12:32:49;12.10;;;4.77;;
18738;SDS011;9498;51.862;19.460;2023-02-01T12:35:30;13.60;;;5.17;;
18738;SDS011;9498;51.862;19.460;2023-02-01T12:38:04;14.07;;;5.40;;
18738;SDS011;9498;51.862;19.460;2023-02-01T12:40:41;12.00;;;5.33;;
18738;SDS011;9498;51.862;19.460;2023-02-01T12:43:11;13.00;;;5.87;;
18738;SDS011;9498;51.862;19.460;2023-02-01T12:45:47;15.63;;;5.70;;
18738;SDS011;9498;51.862;19.460;2023-02-01T12:48:21;16.60;;;6.73;;
18738;SDS011;9498;51.862;19.460;2023-02-01T12:50:50;19.67;;;6.67;;
18738;SDS011;9498;51.862;19.460;2023-02-01T12:53:22;23.50;;;8.10;;
18738;SDS011;9498;51.862;19.460;2023-02-01T12:55:51;18.57;;;6.80;;
18738;SDS011;9498;51.862;19.460;2023-02-01T12:58:21;17.93;;;7.20;;
18738;SDS011;9498;51.862;19.460;2023-02-01T13:00:51;15.25;;;6.78;;
18738;SDS011;9498;51.862;19.460;2023-02-01T13:03:26;16.67;;;7.40;;
18738;SDS011;9498;51.862;19.460;2023-02-01T13:05:58;19.00;;;7.40;;
18738;SDS011;9498;51.862;19.460;2023-02-01T13:08:30;25.47;;;8.17;;
18738;SDS011;9498;51.862;19.460;2023-02-01T13:11:02;24.27;;;7.97;;
18738;SDS011;9498;51.862;19.460;2023-02-01T13:13:32;15.93;;;6.50;;
18738;SDS011;9498;51.862;19.460;2023-02-01T13:16:05;21.93;;;6.77;;
18738;SDS011;9498;51.862;19.460;2023-02-01T13:18:36;21.30;;;7.40;;
18738;SDS011;9498;51.862;19.460;2023-02-01T13:21:06;20.53;;;7.40;;
18738;SDS011;9498;51.862;19.460;2023-02-01T13:23:36;18.97;;;7.37;;
18738;SDS011;9498;51.862;19.460;2023-02-01T13:26:05;22.27;;;6.83;;
18738;SDS011;9498;51.862;19.460;2023-02-01T13:28:35;14.50;;;6.40;;
18738;SDS011;9498;51.862;19.460;2023-02-01T13:31:08;17.27;;;7.60;;
18738;SDS011;9498;51.862;19.460;2023-02-01T13:33:48;25.57;;;7.53;;
18738;SDS011;9498;51.862;19.460;2023-02-01T13:36:27;19.33;;;7.90;;
18738;SDS011;9498;51.862;19.460;2023-02-01T13:39:13;19.20;;;6.80;;
18738;SDS011;9498;51.862;19.460;2023-02-01T13:41:50;16.20;;;6.97;;
18738;SDS011;9498;51.862;19.460;2023-02-01T13:44:21;19.83;;;7.03;;
18738;SDS011;9498;51.862;19.460;2023-02-01T13:46:51;18.43;;;6.97;;
18738;SDS011;9498;51.862;19.460;2023-02-01T13:49:24;16.33;;;7.50;;
18738;SDS011;9498;51.862;19.460;2023-02-01T13:51:53;19.07;;;6.63;;
18738;SDS011;9498;51.862;19.460;2023-02-01T13:54:28;15.23;;;6.97;;
18738;SDS011;9498;51.862;19.460;2023-02-01T13:56:56;17.27;;;7.97;;
18738;SDS011;9498;51.862;19.460;2023-02-01T13:59:48;22.60;;;7.83;;
18738;SDS011;9498;51.862;19.460;2023-02-01T14:05:03;21.23;;;7.77;;
18738;SDS011;9498;51.862;19.460;2023-02-01T14:07:31;19.30;;;8.23;;
18738;SDS011;9498;51.862;19.460;2023-02-01T14:09:58;22.98;;;9.98;;
18738;SDS011;9498;51.862;19.460;2023-02-01T14:12:46;18.93;;;8.60;;
18738;SDS011;9498;51.862;19.460;2023-02-01T14:18:00;23.47;;;8.47;;
18738;SDS011;9498;51.862;19.460;2023-02-01T14:23:22;23.43;;;10.33;;
18738;SDS011;9498;51.862;19.460;2023-02-01T14:26:04;21.43;;;9.50;;
18738;SDS011;9498;51.862;19.460;2023-02-01T14:28:32;22.13;;;8.60;;
18738;SDS011;9498;51.862;19.460;2023-02-01T14:31:06;23.97;;;8.90;;
18738;SDS011;9498;51.862;19.460;2023-02-01T14:33:41;22.80;;;9.83;;
18738;SDS011;9498;51.862;19.460;2023-02-01T14:36:10;21.87;;;8.80;;
18738;SDS011;9498;51.862;19.460;2023-02-01T14:38:40;28.77;;;8.83;;
18738;SDS011;9498;51.862;19.460;2023-02-01T14:41:24;23.93;;;10.57;;
18738;SDS011;9498;51.862;19.460;2023-02-01T14:49:50;20.77;;;7.77;;
18738;SDS011;9498;51.862;19.460;2023-02-01T14:52:20;16.60;;;7.77;;
18738;SDS011;9498;51.862;19.460;2023-02-01T14:54:51;17.07;;;8.83;;
18738;SDS011;9498;51.862;19.460;2023-02-01T14:57:20;19.30;;;7.50;;
18738;SDS011;9498;51.862;19.460;2023-02-01T14:59:49;17.97;;;8.87;;
18738;SDS011;9498;51.862;19.460;2023-02-01T15:02:20;18.43;;;7.47;;
18738;SDS011;9498;51.862;19.460;2023-02-01T15:04:53;16.47;;;7.97;;
18738;SDS011;9498;51.862;19.460;2023-02-01T15:07:20;18.63;;;7.60;;
18738;SDS011;9498;51.862;19.460;2023-02-01T15:09:50;15.80;;;8.17;;
18738;SDS011;9498;51.862;19.460;2023-02-01T15:12:22;21.63;;;8.50;;
18738;SDS011;9498;51.862;19.460;2023-02-01T15:15:03;17.10;;;8.63;;
18738;SDS011;9498;51.862;19.460;2023-02-01T15:17:36;21.42;;;10.70;;
18738;SDS011;9498;51.862;19.460;2023-02-01T15:20:12;26.03;;;10.40;;
18738;SDS011;9498;51.862;19.460;2023-02-01T15:22:40;20.97;;;8.57;;